createdAt,value
2018-09-24T00:01:16.376Z,99.90
2018-09-24T00:03:46.732Z,99.90
2018-09-24T00:06:17.537Z,99.90
2018-09-24T00:08:47.848Z,99.90
2018-09-24T00:11:17.905Z,99.90
2018-09-24T00:13:48.156Z,99.90
2018-09-24T00:16:18.793Z,99.90
2018-09-24T00:18:49.324Z,99.90
2018-09-24T00:21:19.206Z,99.90
2018-09-24T00:23:49.802Z,99.90
2018-09-24T00:26:19.813Z,99.90
2018-09-24T00:28:49.888Z,99.90
2018-09-24T00:31:20.857Z,99.90
2018-09-24T00:33:51.827Z,99.90
2018-09-24T00:36:22.535Z,99.90
2018-09-24T00:38:53.170Z,99.90
2018-09-24T00:41:24.144Z,99.90
2018-09-24T00:43:55.263Z,99.90
2018-09-24T00:46:25.724Z,99.90
2018-09-24T00:48:55.760Z,99.90
2018-09-24T00:51:24.761Z,99.90
2018-09-24T00:53:55.167Z,99.90
2018-09-24T00:56:25.564Z,99.90
2018-09-24T00:58:56.242Z,99.90
2018-09-24T01:01:28.801Z,99.90
2018-09-24T01:03:58.570Z,99.90
2018-09-24T01:06:29.086Z,99.90
2018-09-24T01:09:00.728Z,99.90
2018-09-24T01:11:31.537Z,99.90
2018-09-24T01:14:02.185Z,99.90
2018-09-24T01:16:32.752Z,99.90
2018-09-24T01:19:03.309Z,99.90
2018-09-24T01:21:34.035Z,99.90
2018-09-24T01:24:04.850Z,99.90
2018-09-24T01:26:35.408Z,99.90
2018-09-24T01:29:06.372Z,99.90
2018-09-24T01:31:37.124Z,99.90
2018-09-24T01:34:08.014Z,99.90
2018-09-24T01:36:39.435Z,99.90
2018-09-24T01:39:10.581Z,99.90
2018-09-24T01:41:41.237Z,99.90
2018-09-24T01:44:12.401Z,99.90
2018-09-24T01:46:43.924Z,99.90
2018-09-24T01:49:15.318Z,99.90
2018-09-24T01:51:46.512Z,99.90
2018-09-24T01:54:17.705Z,99.90
2018-09-24T01:56:48.375Z,99.90
2018-09-24T01:59:19.892Z,99.90
2018-09-24T02:01:50.519Z,99.90
2018-09-24T02:04:21.123Z,99.90
2018-09-24T02:06:56.817Z,99.90
2018-09-24T02:09:27.601Z,99.90
2018-09-24T02:12:07.920Z,99.90
2018-09-24T02:14:39.885Z,99.90
2018-09-24T02:17:17.290Z,99.90
2018-09-24T02:19:49.354Z,99.90
2018-09-24T02:22:28.408Z,99.90
2018-09-24T02:25:00.165Z,99.90
2018-09-24T02:27:31.094Z,99.90
2018-09-24T02:30:02.252Z,99.90
2018-09-24T02:32:33.002Z,99.90
2018-09-24T02:35:04.324Z,99.90
2018-09-24T02:37:36.268Z,99.90
2018-09-24T02:40:08.936Z,99.90
2018-09-24T02:42:40.270Z,99.90
2018-09-24T02:45:11.618Z,99.90
2018-09-24T02:47:43.073Z,99.90
2018-09-24T02:50:13.791Z,99.90
2018-09-24T02:52:44.862Z,99.90
2018-09-24T02:55:17.853Z,99.90
2018-09-24T02:57:49.345Z,99.90
2018-09-24T03:00:22.392Z,99.90
2018-09-24T03:02:53.438Z,99.90
2018-09-24T03:05:23.960Z,99.90
2018-09-24T03:07:55.375Z,99.90
2018-09-24T03:10:25.813Z,99.90
2018-09-24T03:12:56.466Z,99.90
2018-09-24T03:15:27.813Z,99.90
2018-09-24T03:17:58.592Z,99.90
2018-09-24T03:20:30.274Z,99.90
2018-09-24T03:23:01.326Z,99.90
2018-09-24T03:25:32.301Z,99.90
2018-09-24T03:28:02.819Z,99.90
2018-09-24T03:30:37.075Z,99.90
2018-09-24T03:33:08.359Z,99.90
2018-09-24T03:35:39.068Z,99.90
2018-09-24T03:38:10.063Z,99.90
2018-09-24T03:40:41.825Z,99.90
2018-09-24T03:43:12.231Z,99.90
2018-09-24T03:45:43.316Z,99.90
2018-09-24T03:48:14.132Z,99.90
2018-09-24T03:50:45.395Z,99.90
2018-09-24T03:53:16.065Z,99.90
2018-09-24T03:55:46.818Z,99.90
2018-09-24T03:58:20.326Z,99.90
2018-09-24T04:00:51.873Z,99.90
2018-09-24T04:03:22.865Z,99.90
2018-09-24T04:05:58.715Z,99.90
2018-09-24T04:08:35.012Z,99.90
2018-09-24T04:11:10.677Z,99.90
2018-09-24T04:13:46.473Z,99.90
2018-09-24T04:16:21.694Z,99.90
2018-09-24T04:18:57.422Z,99.90
2018-09-24T04:21:32.807Z,99.90
2018-09-24T04:24:08.690Z,99.90
2018-09-24T04:26:43.141Z,99.90
2018-09-24T04:29:19.103Z,99.90
2018-09-24T04:31:55.289Z,99.90
2018-09-24T04:34:31.061Z,99.90
2018-09-24T04:37:07.223Z,99.90
2018-09-24T04:39:42.871Z,99.90
2018-09-24T04:42:17.059Z,99.90
2018-09-24T04:44:52.430Z,99.90
2018-09-24T04:47:28.468Z,99.90
2018-09-24T04:50:04.089Z,99.90
2018-09-24T04:52:39.395Z,99.90
2018-09-24T04:55:15.048Z,99.90
2018-09-24T04:57:51.301Z,99.90
2018-09-24T05:00:25.882Z,99.90
2018-09-24T05:03:01.967Z,99.90
2018-09-24T05:05:38.145Z,99.90
2018-09-24T05:08:13.802Z,99.90
2018-09-24T05:10:49.597Z,99.90
2018-09-24T05:13:25.471Z,99.90
2018-09-24T05:16:00.893Z,99.90
2018-09-24T05:18:36.136Z,99.90
2018-09-24T05:21:12.228Z,99.90
2018-09-24T05:23:48.221Z,99.90
2018-09-24T05:26:24.179Z,99.90
2018-09-24T05:29:00.421Z,99.90
2018-09-24T05:31:36.215Z,99.90
2018-09-24T05:34:12.197Z,99.90
2018-09-24T05:36:48.216Z,99.90
2018-09-24T05:39:23.347Z,99.90
2018-09-24T05:41:58.838Z,99.90
2018-09-24T05:44:34.603Z,99.90
2018-09-24T05:47:10.629Z,99.90
2018-09-24T05:49:46.982Z,99.90
2018-09-24T05:52:22.913Z,99.90
2018-09-24T05:54:58.534Z,99.90
2018-09-24T05:57:33.930Z,99.90
2018-09-24T06:00:10.870Z,99.90
2018-09-24T06:02:46.174Z,99.90
2018-09-24T06:05:21.717Z,99.90
2018-09-24T06:07:56.992Z,99.90
2018-09-24T06:10:32.193Z,99.90
2018-09-24T06:13:06.827Z,99.90
2018-09-24T06:15:42.645Z,99.90
2018-09-24T06:18:18.245Z,99.90
2018-09-24T06:20:54.569Z,99.90
2018-09-24T06:23:30.086Z,99.90
2018-09-24T06:26:05.578Z,99.90
2018-09-24T06:28:41.423Z,99.90
2018-09-24T06:31:16.233Z,99.90
2018-09-24T06:33:51.964Z,99.90
2018-09-24T06:36:27.763Z,99.90
2018-09-24T06:39:03.095Z,99.90
2018-09-24T06:41:38.685Z,99.90
2018-09-24T06:44:14.488Z,99.90
2018-09-24T06:46:50.572Z,99.90
2018-09-24T06:49:26.622Z,99.90
2018-09-24T06:52:02.549Z,99.90
2018-09-24T06:54:38.154Z,99.90
2018-09-24T06:57:14.135Z,99.90
2018-09-24T06:59:50.268Z,99.90
2018-09-24T07:02:26.270Z,99.90
2018-09-24T07:05:01.576Z,99.90
2018-09-24T07:07:37.043Z,99.90
2018-09-24T07:10:12.349Z,99.90
2018-09-24T07:12:47.925Z,99.90
2018-09-24T07:15:24.216Z,99.90
2018-09-24T07:17:59.195Z,99.90
2018-09-24T07:20:34.733Z,99.90
2018-09-24T07:23:10.943Z,99.90
2018-09-24T07:25:46.881Z,99.90
2018-09-24T07:28:22.660Z,99.90
2018-09-24T07:30:58.115Z,99.90
2018-09-24T07:33:34.034Z,99.90
2018-09-24T07:36:10.241Z,99.90
2018-09-24T07:38:46.403Z,99.90
2018-09-24T07:41:22.057Z,99.90
2018-09-24T07:43:59.191Z,99.90
2018-09-24T07:46:35.558Z,99.90
2018-09-24T07:49:11.382Z,99.90
2018-09-24T07:51:47.385Z,99.90
2018-09-24T07:54:22.512Z,99.90
2018-09-24T07:56:58.285Z,99.90
2018-09-24T07:59:33.874Z,99.90
2018-09-24T08:02:09.483Z,99.90
2018-09-24T08:04:44.629Z,99.90
2018-09-24T08:07:20.310Z,99.90
2018-09-24T08:09:56.135Z,99.90
2018-09-24T08:12:32.374Z,99.90
2018-09-24T08:15:08.689Z,99.90
2018-09-24T08:17:43.647Z,99.90
2018-09-24T08:20:19.359Z,99.90
2018-09-24T08:22:54.856Z,99.90
2018-09-24T08:25:30.317Z,99.90
2018-09-24T08:28:05.768Z,99.90
2018-09-24T08:30:41.035Z,99.90
2018-09-24T08:33:16.446Z,99.90
2018-09-24T08:35:52.553Z,99.90
2018-09-24T08:38:28.138Z,99.90
2018-09-24T08:41:02.878Z,99.90
2018-09-24T08:43:39.081Z,99.90
2018-09-24T08:46:17.168Z,99.90
2018-09-24T08:48:57.002Z,99.90
2018-09-24T08:51:32.540Z,99.90
2018-09-24T08:54:07.971Z,99.90
2018-09-24T08:56:43.132Z,99.90
2018-09-24T08:59:19.103Z,99.90
2018-09-24T09:01:55.084Z,99.90
2018-09-24T09:04:31.271Z,99.90
2018-09-24T09:07:06.676Z,99.90
2018-09-24T09:09:41.432Z,99.90
2018-09-24T09:12:18.550Z,99.90
2018-09-24T09:14:54.624Z,99.90
2018-09-24T09:17:30.893Z,99.90
2018-09-24T09:20:06.752Z,99.90
2018-09-24T09:22:42.057Z,99.90
2018-09-24T09:25:18.312Z,99.90
2018-09-24T09:27:54.294Z,99.90
2018-09-24T09:30:29.130Z,99.90
2018-09-24T09:33:04.382Z,99.90
2018-09-24T09:35:40.542Z,99.90
2018-09-24T09:38:16.227Z,99.90
2018-09-24T09:40:51.675Z,99.90
2018-09-24T09:43:27.749Z,99.90
2018-09-24T09:46:03.445Z,99.90
2018-09-24T09:48:39.396Z,99.90
2018-09-24T09:51:15.340Z,99.90
2018-09-24T09:53:51.205Z,99.70
2018-09-24T09:56:26.429Z,99.90
2018-09-24T09:59:00.691Z,99.90
2018-09-24T10:01:36.546Z,99.90
2018-09-24T10:04:12.309Z,99.90
2018-09-24T10:06:47.932Z,99.90
2018-09-24T10:09:23.530Z,98.80
2018-09-24T10:11:58.889Z,98.10
2018-09-24T10:14:34.664Z,96.90
2018-09-24T10:17:09.768Z,96.70
2018-09-24T10:19:45.358Z,96.10
2018-09-24T10:22:21.175Z,96.80
2018-09-24T10:24:55.382Z,96.40
2018-09-24T10:27:30.541Z,96.00
2018-09-24T10:30:05.904Z,97.50
2018-09-24T10:32:41.342Z,97.10
2018-09-24T10:35:16.785Z,97.70
2018-09-24T10:37:51.867Z,96.40
2018-09-24T10:40:27.660Z,97.10
2018-09-24T10:43:03.403Z,96.90
2018-09-24T10:45:38.876Z,95.60
2018-09-24T10:48:14.741Z,96.20
2018-09-24T10:50:50.753Z,95.80
2018-09-24T10:53:25.765Z,96.80
2018-09-24T10:56:02.212Z,96.10
2018-09-24T10:58:37.167Z,95.30
2018-09-24T11:01:12.802Z,95.50
2018-09-24T11:03:48.204Z,95.60
2018-09-24T11:06:22.845Z,96.40
2018-09-24T11:08:58.256Z,97.10
2018-09-24T11:11:33.825Z,96.60
2018-09-24T11:14:09.638Z,94.80
2018-09-24T11:16:45.389Z,94.00
2018-09-24T11:19:21.333Z,90.30
2018-09-24T11:21:56.889Z,91.30
2018-09-24T11:24:32.455Z,91.40
2018-09-24T11:27:07.759Z,91.00
2018-09-24T11:29:42.829Z,91.90
2018-09-24T11:32:18.192Z,90.80
2018-09-24T11:34:53.896Z,90.70
2018-09-24T11:37:29.082Z,91.60
2018-09-24T11:40:05.489Z,91.80
2018-09-24T11:42:40.732Z,91.40
2018-09-24T11:45:16.309Z,91.20
2018-09-24T11:47:51.953Z,91.50
2018-09-24T11:50:27.832Z,90.00
2018-09-24T11:53:03.542Z,89.40
2018-09-24T11:55:39.587Z,89.70
2018-09-24T11:58:14.842Z,89.80
2018-09-24T12:00:50.375Z,90.00
2018-09-24T12:03:26.299Z,89.50
2018-09-24T12:06:00.840Z,87.30
2018-09-24T12:08:36.560Z,88.00
2018-09-24T12:11:11.967Z,86.40
2018-09-24T12:13:46.597Z,83.90
2018-09-24T12:16:22.031Z,83.50
2018-09-24T12:18:57.310Z,85.00
2018-09-24T12:21:32.060Z,87.00
2018-09-24T12:24:07.450Z,86.80
2018-09-24T12:26:43.183Z,88.90
2018-09-24T12:29:18.013Z,85.80
2018-09-24T12:31:53.175Z,84.70
2018-09-24T12:34:28.348Z,85.20
2018-09-24T12:37:03.877Z,87.20
2018-09-24T12:39:38.962Z,84.80
2018-09-24T12:42:14.344Z,84.20
2018-09-24T12:44:49.387Z,84.40
2018-09-24T12:47:24.647Z,85.10
2018-09-24T12:50:00.182Z,85.20
2018-09-24T12:52:35.276Z,83.90
2018-09-24T12:55:10.496Z,81.50
2018-09-24T12:57:46.050Z,83.90
2018-09-24T13:00:21.104Z,85.30
2018-09-24T13:02:56.730Z,84.00
2018-09-24T13:05:32.256Z,84.00
2018-09-24T13:08:07.322Z,82.10
2018-09-24T13:10:42.533Z,82.60
2018-09-24T13:13:18.543Z,80.70
2018-09-24T13:15:53.467Z,82.50
2018-09-24T13:18:29.965Z,84.60
2018-09-24T13:21:05.033Z,83.50
2018-09-24T13:23:40.410Z,84.60
2018-09-24T13:26:15.438Z,85.20
2018-09-24T13:28:51.360Z,82.80
2018-09-24T13:31:26.614Z,84.10
2018-09-24T13:34:01.795Z,81.80
2018-09-24T13:36:37.325Z,82.70
2018-09-24T13:39:14.658Z,78.80
2018-09-24T13:41:49.917Z,81.60
2018-09-24T13:44:24.847Z,81.70
2018-09-24T13:47:00.045Z,80.30
2018-09-24T13:49:35.543Z,76.10
2018-09-24T13:52:10.928Z,76.40
2018-09-24T13:54:47.652Z,76.50
2018-09-24T13:57:22.110Z,76.40
2018-09-24T13:59:56.697Z,75.10
2018-09-24T14:02:31.350Z,75.50
2018-09-24T14:05:06.700Z,76.90
2018-09-24T14:07:41.752Z,76.10
2018-09-24T14:10:17.606Z,76.10
2018-09-24T14:12:53.429Z,75.40
2018-09-24T14:15:30.220Z,75.00
2018-09-24T14:18:05.545Z,76.90
2018-09-24T14:20:41.498Z,76.90
2018-09-24T14:23:16.891Z,77.70
2018-09-24T14:25:52.784Z,76.50
2018-09-24T14:28:28.137Z,77.10
2018-09-24T14:31:03.378Z,80.30
2018-09-24T14:33:39.196Z,80.90
2018-09-24T14:36:14.621Z,79.70
2018-09-24T14:38:50.024Z,80.10
2018-09-24T14:41:26.143Z,81.90
2018-09-24T14:44:00.279Z,80.60
2018-09-24T14:46:34.151Z,81.30
2018-09-24T14:49:09.008Z,81.90
2018-09-24T14:51:42.986Z,82.40
2018-09-24T14:54:17.724Z,84.40
2018-09-24T14:56:53.260Z,84.30
2018-09-24T14:59:28.371Z,84.40
2018-09-24T15:02:02.120Z,85.70
2018-09-24T15:04:35.856Z,86.10
2018-09-24T15:07:09.811Z,86.20
2018-09-24T15:09:43.378Z,84.50
2018-09-24T15:12:17.335Z,85.60
2018-09-24T15:14:50.941Z,85.20
2018-09-24T15:17:24.816Z,84.80
2018-09-24T15:19:58.571Z,84.10
2018-09-24T15:22:32.584Z,85.50
2018-09-24T15:25:06.433Z,86.60
2018-09-24T15:27:40.323Z,87.20
2018-09-24T15:30:14.084Z,89.10
2018-09-24T15:32:47.759Z,88.00
2018-09-24T15:35:21.596Z,85.40
2018-09-24T15:37:55.350Z,85.20
2018-09-24T15:40:29.107Z,86.90
2018-09-24T15:43:02.709Z,86.80
2018-09-24T15:45:36.657Z,86.60
2018-09-24T15:48:10.549Z,87.70
2018-09-24T15:50:44.365Z,88.90
2018-09-24T15:53:18.165Z,89.40
2018-09-24T15:55:51.819Z,89.10
2018-09-24T15:58:25.674Z,89.50
2018-09-24T16:00:59.726Z,90.40
2018-09-24T16:03:33.430Z,90.90
2018-09-24T16:06:07.376Z,90.10
2018-09-24T16:08:41.147Z,90.00
2018-09-24T16:11:15.069Z,90.10
2018-09-24T16:13:48.659Z,90.80
2018-09-24T16:16:22.463Z,90.90
2018-09-24T16:18:56.288Z,90.70
2018-09-24T16:21:30.050Z,90.60
2018-09-24T16:24:03.919Z,90.30
2018-09-24T16:26:37.712Z,90.50
2018-09-24T16:29:11.616Z,91.10
2018-09-24T16:31:45.509Z,91.60
2018-09-24T16:34:19.447Z,92.20
2018-09-24T16:36:53.151Z,92.50
2018-09-24T16:39:26.989Z,92.50
2018-09-24T16:42:00.674Z,92.90
2018-09-24T16:44:34.580Z,92.60
2018-09-24T16:47:08.422Z,92.70
2018-09-24T16:49:42.192Z,92.80
2018-09-24T16:52:16.086Z,93.30
2018-09-24T16:54:49.859Z,93.60
2018-09-24T16:57:23.763Z,93.60
2018-09-24T16:59:57.779Z,93.60
2018-09-24T17:02:31.549Z,94.00
2018-09-24T17:05:05.306Z,94.50
2018-09-24T17:07:39.185Z,94.30
2018-09-24T17:10:12.928Z,94.40
2018-09-24T17:12:46.607Z,94.70
2018-09-24T17:15:20.507Z,94.70
2018-09-24T17:17:54.383Z,95.00
2018-09-24T17:20:28.332Z,95.10
2018-09-24T17:23:02.152Z,95.40
2018-09-24T17:25:36.036Z,95.70
2018-09-24T17:28:09.921Z,95.70
2018-09-24T17:30:43.758Z,95.60
2018-09-24T17:33:17.958Z,96.30
2018-09-24T17:35:51.766Z,96.40
2018-09-24T17:38:25.434Z,97.00
2018-09-24T17:40:59.164Z,97.10
2018-09-24T17:43:39.891Z,97.50
2018-09-24T17:46:13.893Z,97.80
2018-09-24T17:48:47.777Z,98.20
2018-09-24T17:51:21.586Z,98.20
2018-09-24T17:53:55.211Z,98.70
2018-09-24T17:56:29.116Z,99.10
2018-09-24T17:59:02.747Z,99.50
2018-09-24T18:01:36.535Z,99.70
2018-09-24T18:04:10.385Z,99.90
2018-09-24T18:06:44.109Z,99.90
2018-09-24T18:09:17.802Z,99.90
2018-09-24T18:11:51.521Z,99.90
2018-09-24T18:14:25.152Z,99.90
2018-09-24T18:16:59.034Z,99.90
2018-09-24T18:19:32.779Z,99.90
2018-09-24T18:22:06.770Z,99.90
2018-09-24T18:24:40.485Z,99.90
2018-09-24T18:27:14.152Z,99.90
2018-09-24T18:29:47.994Z,99.90
2018-09-24T18:32:22.032Z,99.90
2018-09-24T18:34:56.078Z,99.90
2018-09-24T18:37:30.248Z,99.90
2018-09-24T18:40:03.804Z,99.90
2018-09-24T18:42:37.545Z,99.90
2018-09-24T18:45:11.365Z,99.90
2018-09-24T18:47:45.322Z,99.90
2018-09-24T18:50:18.989Z,99.90
2018-09-24T18:52:52.908Z,99.90
2018-09-24T18:55:26.790Z,99.90
2018-09-24T18:58:00.701Z,99.90
2018-09-24T19:00:34.475Z,99.90
2018-09-24T19:03:08.287Z,99.90
2018-09-24T19:05:42.568Z,99.90
2018-09-24T19:08:16.494Z,99.90
2018-09-24T19:10:50.352Z,99.90
2018-09-24T19:13:24.886Z,99.90
2018-09-24T19:15:58.720Z,99.90
2018-09-24T19:18:33.417Z,99.90
2018-09-24T19:21:07.355Z,99.90
2018-09-24T19:23:41.128Z,99.90
2018-09-24T19:26:14.784Z,99.90
2018-09-24T19:28:48.449Z,99.90
2018-09-24T19:31:22.249Z,99.90
2018-09-24T19:33:55.963Z,99.90
2018-09-24T19:36:29.767Z,99.90
2018-09-24T19:39:03.600Z,99.90
2018-09-24T19:41:37.399Z,99.90
2018-09-24T19:44:11.344Z,99.90
2018-09-24T19:46:45.279Z,99.90
2018-09-24T19:49:19.092Z,99.90
2018-09-24T19:51:52.814Z,99.90
2018-09-24T19:54:27.744Z,99.90
2018-09-24T19:57:01.593Z,99.90
2018-09-24T19:59:35.467Z,99.90
2018-09-24T20:02:09.467Z,99.90
2018-09-24T20:04:43.369Z,99.90
2018-09-24T20:07:17.102Z,99.90
2018-09-24T20:09:50.951Z,99.90
2018-09-24T20:12:24.744Z,99.90
2018-09-24T20:14:58.664Z,99.90
2018-09-24T20:17:32.472Z,99.90
2018-09-24T20:20:06.272Z,99.90
2018-09-24T20:22:40.409Z,99.90
2018-09-24T20:25:14.151Z,99.90
2018-09-24T20:27:47.888Z,99.90
2018-09-24T20:30:21.794Z,99.90
2018-09-24T20:32:57.049Z,99.90
2018-09-24T20:35:30.935Z,99.90
2018-09-24T20:38:04.855Z,99.90
2018-09-24T20:40:38.644Z,99.90
2018-09-24T20:43:12.468Z,99.90
2018-09-24T20:45:46.180Z,99.90
2018-09-24T20:48:19.951Z,99.90
2018-09-24T20:50:53.887Z,99.90
2018-09-24T20:53:27.762Z,99.90
2018-09-24T20:56:01.685Z,99.90
2018-09-24T20:58:35.584Z,99.90
2018-09-24T21:01:09.529Z,99.90
2018-09-24T21:03:43.320Z,99.90
2018-09-24T21:06:17.156Z,99.90
2018-09-24T21:08:50.919Z,99.90
2018-09-24T21:11:24.897Z,99.90
2018-09-24T21:13:58.774Z,99.90
2018-09-24T21:16:32.603Z,99.90
2018-09-24T21:19:06.428Z,99.90
2018-09-24T21:21:40.315Z,99.90
2018-09-24T21:24:14.184Z,99.90
2018-09-24T21:26:49.029Z,99.90
2018-09-24T21:29:22.843Z,99.90
2018-09-24T21:31:56.747Z,99.90
2018-09-24T21:34:31.021Z,99.90
2018-09-24T21:37:04.697Z,99.90
2018-09-24T21:39:38.661Z,99.90
2018-09-24T21:42:12.490Z,99.90
2018-09-24T21:44:46.313Z,99.90
2018-09-24T21:47:20.181Z,99.90
2018-09-24T21:49:54.214Z,99.90
2018-09-24T21:52:28.354Z,99.90
2018-09-24T21:55:02.346Z,99.90
2018-09-24T21:57:36.206Z,99.90
2018-09-24T22:00:10.636Z,99.90
2018-09-24T22:02:44.478Z,99.90
2018-09-24T22:05:18.233Z,99.90
2018-09-24T22:07:52.097Z,99.90
2018-09-24T22:10:25.936Z,99.90
2018-09-24T22:12:59.699Z,99.90
2018-09-24T22:15:33.570Z,99.90
2018-09-24T22:18:07.403Z,99.90
2018-09-24T22:20:41.200Z,99.90
2018-09-24T22:23:15.069Z,99.90
2018-09-24T22:25:48.851Z,99.90
2018-09-24T22:28:22.586Z,99.90
2018-09-24T22:30:56.367Z,99.90
2018-09-24T22:33:30.138Z,99.90
2018-09-24T22:36:03.775Z,99.90
2018-09-24T22:38:37.684Z,99.90
2018-09-24T22:41:11.871Z,99.90
2018-09-24T22:43:45.680Z,99.90
2018-09-24T22:46:19.575Z,99.90
2018-09-24T22:48:53.251Z,99.90
2018-09-24T22:51:27.099Z,99.90
2018-09-24T22:54:00.881Z,99.90
2018-09-24T22:56:34.616Z,99.90
2018-09-24T22:59:08.583Z,99.90
2018-09-24T23:01:42.401Z,99.90
2018-09-24T23:04:16.310Z,99.90
2018-09-24T23:06:50.090Z,99.90
2018-09-24T23:09:23.891Z,99.90
2018-09-24T23:11:57.645Z,99.90
2018-09-24T23:14:31.623Z,99.90
2018-09-24T23:17:05.423Z,99.90
2018-09-24T23:19:39.599Z,99.90
2018-09-24T23:22:13.534Z,99.90
2018-09-24T23:24:47.349Z,99.90
2018-09-24T23:27:21.215Z,99.90
2018-09-24T23:29:54.933Z,99.90
2018-09-24T23:32:28.900Z,99.90
2018-09-24T23:35:02.913Z,99.90
2018-09-24T23:37:36.654Z,99.90
2018-09-24T23:40:10.654Z,99.90
2018-09-24T23:42:44.612Z,99.90
2018-09-24T23:45:18.383Z,99.90
2018-09-24T23:47:52.158Z,99.90
2018-09-24T23:50:25.847Z,99.90
2018-09-24T23:52:59.756Z,99.90
2018-09-24T23:55:33.534Z,99.90
2018-09-24T23:58:07.248Z,99.90
